ADDS METAR Data INFO
IDs: Format: Raw Decoded Include TAF

Data at: 2219 UTC 24 Jun 2018

KSEZ 242215Z AUTO 15007G14KT 120V190 10SM CLR 33/M01 A3004 RMK AO2
KSEZ 242155Z AUTO 22009G15KT 190V260 10SM CLR 35/M01 A3004 RMK AO2
KSEZ 242135Z AUTO 19011G16KT 10SM CLR 35/00 A3006 RMK AO2
KSEZ 242115Z AUTO 14007G14KT 10SM CLR 35/00 A3006 RMK AO2
KSEZ 242055Z AUTO 19010G15KT 10SM CLR 34/00 A3006 RMK AO2
KSEZ 242035Z AUTO 22009G16KT 10SM CLR 34/00 A3007 RMK AO2
KSEZ 242015Z AUTO 19005G14KT 10SM CLR 32/M01 A3007 RMK AO2
KSEZ 241955Z AUTO 15010KT 130V190 10SM CLR 33/00 A3008 RMK AO2
KSEZ 241935Z AUTO 17006G22KT 10SM CLR 33/00 A3009 RMK AO2
KSEZ 241915Z AUTO 19007G15KT 170V230 10SM CLR 32/M01 A3010 RMK AO2
KSEZ 241855Z AUTO 23009KT 190V250 10SM CLR 31/M01 A3010 RMK AO2 LTG DSNT NE
KSEZ 241835Z AUTO 16004KT 10SM CLR 32/M01 A3010 RMK AO2
KSEZ 241815Z AUTO 14006KT 10SM CLR 32/00 A3011 RMK AO2
KSEZ 241755Z AUTO 18009KT 150V210 10SM CLR 32/00 A3011 RMK AO2
KSEZ 241735Z AUTO 15011G15KT 110V170 10SM CLR 32/00 A3011 RMK AO2
KSEZ 241715Z AUTO 20005KT 10SM CLR 30/00 A3011 RMK AO2
KSEZ 241655Z AUTO 21007KT 10SM CLR 28/00 A3011 RMK AO2
KSEZ 241635Z AUTO 14008G14KT 10SM CLR 30/01 A3010 RMK AO2
KSEZ 241615Z AUTO 17007KT 10SM CLR 29/02 A3011 RMK AO2
KSEZ 241555Z AUTO 17008KT 10SM CLR 27/03 A3010 RMK AO2
KSEZ 241535Z AUTO 18005KT 10SM CLR 26/04 A3010 RMK AO2
KSEZ 241515Z AUTO 12008KT 080V140 10SM CLR 27/05 A3010 RMK AO2
KSEZ 241455Z AUTO 13003KT 10SM CLR 26/05 A3010 RMK AO2
KSEZ 241435Z AUTO 14005KT 10SM CLR 26/05 A3009 RMK AO2
KSEZ 241415Z AUTO 00000KT 10SM CLR 23/04 A3008 RMK AO2
KSEZ 241355Z AUTO 00000KT 10SM CLR 23/04 A3007 RMK AO2
KSEZ 241335Z AUTO 00000KT 10SM CLR 23/04 A3006 RMK AO2
KSEZ 241315Z AUTO 00000KT 10SM CLR 22/03 A3006 RMK AO2
KSEZ 241255Z AUTO 00000KT 10SM CLR 22/04 A3005 RMK AO2
KSEZ 241235Z AUTO 00000KT 10SM CLR 22/04 A3004 RMK AO2
KSEZ 241215Z AUTO 00000KT 10SM CLR 22/04 A3004 RMK AO2
KSEZ 241155Z AUTO 00000KT 10SM CLR 23/04 A3003 RMK AO2
KSEZ 241135Z AUTO 00000KT 10SM CLR 23/04 A3002 RMK AO2
KSEZ 241115Z AUTO 00000KT 10SM CLR 23/04 A3001 RMK AO2
KSEZ 241055Z AUTO 32003KT 10SM CLR 22/04 A3000 RMK AO2
KSEZ 241035Z AUTO 00000KT 10SM CLR 23/04 A3000 RMK AO2
KSEZ 241015Z AUTO 30005KT 10SM CLR 23/04 A3000 RMK AO2
KSEZ 240955Z AUTO 27005KT 10SM CLR 23/04 A3000 RMK AO2
KSEZ 240935Z AUTO 29005KT 10SM CLR 23/04 A3000 RMK AO2
KSEZ 240915Z AUTO 31006KT 10SM CLR 23/04 A2999 RMK AO2
KSEZ 240855Z AUTO 30006KT 10SM CLR 24/04 A2999 RMK AO2
KSEZ 240835Z AUTO 31006KT 10SM CLR 24/03 A2999 RMK AO2
KSEZ 240815Z AUTO 34003KT 10SM CLR 24/03 A3000 RMK AO2
KSEZ 240755Z AUTO 31004KT 10SM CLR 25/03 A3000 RMK AO2
KSEZ 240735Z AUTO 00000KT 10SM CLR 25/02 A3000 RMK AO2
KSEZ 240715Z AUTO 00000KT 10SM CLR 26/02 A3000 RMK AO2
KSEZ 240655Z AUTO 00000KT 10SM CLR 26/01 A3000 RMK AO2
KSEZ 240635Z AUTO 00000KT 10SM CLR 26/01 A3000 RMK AO2
KSEZ 240615Z AUTO 00000KT 10SM CLR 26/02 A3000 RMK AO2
KSEZ 240555Z AUTO 00000KT 10SM CLR 26/02 A3000 RMK AO2
KSEZ 240535Z AUTO 21003KT 10SM CLR 27/02 A3000 RMK AO2
KSEZ 240515Z AUTO 21003KT 10SM CLR 27/01 A3000 RMK AO2
KSEZ 240455Z AUTO 21004KT 10SM CLR 27/01 A3000 RMK AO2
KSEZ 240435Z AUTO 21004KT 10SM CLR 28/01 A3000 RMK AO2
KSEZ 240415Z AUTO 22005KT 10SM CLR 28/01 A3000 RMK AO2
KSEZ 240355Z AUTO 22007KT 180V250 10SM CLR 28/00 A3000 RMK AO2
KSEZ 240335Z AUTO 22005KT 10SM CLR 28/00 A2999 RMK AO2
KSEZ 240315Z AUTO 21010G14KT 10SM CLR 29/00 A2998 RMK AO2
KSEZ 240255Z AUTO 20011G15KT 10SM CLR 30/00 A2998 RMK AO2
KSEZ 240235Z AUTO 18010G18KT 10SM CLR 30/00 A2997 RMK AO2
KSEZ 240215Z AUTO 18012G18KT 10SM CLR 31/00 A2996 RMK AO2
KSEZ 240155Z AUTO 19013G21KT 10SM CLR 31/00 A2996 RMK AO2
KSEZ 240135Z AUTO 18008G19KT 10SM CLR 32/00 A2995 RMK AO2
KSEZ 240115Z AUTO 18012G23KT 10SM CLR 32/00 A2995 RMK AO2
KSEZ 240055Z AUTO 18011G22KT 130V220 10SM CLR 33/00 A2995 RMK AO2
KSEZ 240035Z AUTO 18015G19KT 150V220 10SM CLR 33/M01 A2995 RMK AO2
KSEZ 240015Z AUTO 19014G24KT 10SM CLR 33/M01 A2995 RMK AO2
KSEZ 232355Z AUTO 17015G22KT 10SM CLR 33/M01 A2995 RMK AO2
KSEZ 232335Z AUTO 18015G28KT 10SM CLR 34/M01 A2995 RMK AO2
KSEZ 232315Z AUTO 18013G22KT 10SM CLR 35/00 A2996 RMK AO2
KSEZ 232255Z AUTO 18021G26KT 10SM CLR 35/00 A2996 RMK AO2
KSEZ 232235Z AUTO 17012G23KT 10SM CLR 35/M01 A2997 RMK AO2
KSEZ 232215Z AUTO 15014G24KT 10SM CLR 36/M01 A2996 RMK AO2
KSEZ 232155Z AUTO 17014G21KT 10SM CLR 35/M02 A2997 RMK AO2
KSEZ 232135Z AUTO 16011G21KT 10SM CLR 36/M02 A2997 RMK AO2
KSEZ 232115Z AUTO 17014G23KT 130V210 10SM CLR 35/M02 A2997 RMK AO2
KSEZ 232055Z AUTO 21013G20KT 10SM CLR 36/M01 A2998 RMK AO2
KSEZ 232035Z AUTO 17018G22KT 10SM CLR 36/M01 A2998 RMK AO2
KSEZ 232015Z AUTO 19012G19KT 170V230 10SM CLR 35/M01 A2999 RMK AO2
KSEZ 231955Z AUTO 18008G22KT 10SM CLR 35/M01 A3000 RMK AO2
KSEZ 231935Z AUTO 23011G19KT 10SM CLR 35/M01 A3000 RMK AO2
KSEZ 231915Z AUTO 17009G15KT 130V200 10SM CLR 35/00 A3000 RMK AO2
KSEZ 231855Z AUTO 20010G16KT 150V230 10SM CLR 36/00 A3002 RMK AO2
KSEZ 231835Z AUTO 21008G15KT 10SM CLR 34/00 A3002 RMK AO2
KSEZ 231815Z AUTO 19007G16KT 10SM CLR 34/M01 A3003 RMK AO2
KSEZ 231755Z AUTO 17009G16KT 10SM CLR 33/M01 A3003 RMK AO2
KSEZ 231735Z AUTO 19007G14KT 140V210 10SM CLR 34/M02 A3004 RMK AO2
KSEZ 231715Z AUTO 18008KT 10SM CLR 33/M02 A3004 RMK AO2
KSEZ 231655Z AUTO 15008KT 120V180 10SM CLR 32/M02 A3003 RMK AO2
KSEZ 231635Z AUTO 11005KT 10SM CLR 31/M02 A3003 RMK AO2
KSEZ 231615Z AUTO 00000KT 10SM CLR 30/M02 A3003 RMK AO2
KSEZ 231555Z AUTO 12007KT 090V150 10SM CLR 30/M02 A3004 RMK AO2
KSEZ 231535Z AUTO 11005KT 10SM CLR 30/M03 A3004 RMK AO2
KSEZ 231515Z AUTO 16005KT 10SM CLR 28/M03 A3004 RMK AO2
KSEZ 231455Z AUTO 11004KT 10SM CLR 28/M05 A3004 RMK AO2
KSEZ 231435Z AUTO 00000KT 10SM CLR 27/M05 A3003 RMK AO2
KSEZ 231415Z AUTO 03003KT 10SM CLR 25/M06 A3003 RMK AO2
KSEZ 231355Z AUTO 02006KT 10SM CLR 23/M06 A3002 RMK AO2
KSEZ 231335Z AUTO 03006KT 10SM CLR 23/M06 A3002 RMK AO2
KSEZ 231315Z AUTO 02009KT 10SM CLR 22/M06 A3001 RMK AO2
KSEZ 231255Z AUTO 02008KT 10SM CLR 21/M06 A3000 RMK AO2
KSEZ 231235Z AUTO 02005KT 10SM CLR 21/M06 A3000 RMK AO2
KSEZ 231215Z AUTO 03004KT 10SM CLR 21/M06 A3000 RMK AO2
KSEZ 231155Z AUTO 03007KT 10SM CLR 21/M06 A2999 RMK AO2
KSEZ 231135Z AUTO 01008KT 10SM CLR 21/M06 A2999 RMK AO2
KSEZ 231115Z AUTO 03005KT 10SM CLR 22/M06 A2998 RMK AO2
KSEZ 231055Z AUTO 02009KT 10SM CLR 22/M06 A2998 RMK AO2
KSEZ 231035Z AUTO 03009KT 10SM CLR 23/M06 A2998 RMK AO2